KHAI

Three Rivers Municipal Dr Haines Airport

Three Rivers, Michigan, USA
METAR KHAI 180835Z AUTO 22007KT 7SM SCT007 BKN060 OVC090 03/02 A2996 RMK AO2 T00340024
Observed Flight Rules
Dec-18 @ 08:35 UTC (11 minutes ago) Visual Flight Rules
Wind Visibility Clouds
220° at 7 knots 7 miles
  • Scattered at 700' AGL
  • Broken at 6,000' AGL
  • Overcast at 9,000' AGL
Temperatures Readings
Current 3°C / 37°F
Dewpoint 2°C / 36°F
Humidity 93%
Altimeter 29.96" Hg
Pressure 1015 hPa
Elevation 251
METAR KHAI 180835Z AUTO 22007KT 7SM SCT007 BKN060 OVC090 03/02 A2996 RMK AO2 T00340024
Observed Flight Rules
Dec-18 @ 08:35 UTC
(11 minutes ago)
VFR
Wind Visibility
220° at 7 knots 7 miles
Clouds
  • Scattered at 700' AGL
  • Broken at 6,000' AGL
  • Overcast at 9,000' AGL
Temperature Dewpoint
3°C / 37°F 2°C / 36°F
Humidity Altimeter Pressure
93% 29.96" Hg 1015 hPa